Auburn, New Hampshire
Current Conditions -  °F | °C
As of 6:53 PM on Sunday 23 Nov 2014 (Local Time) from KMHT Reporting Station
Overcast Overcast  
Wind Chill: 52°   Ceiling: 6000
Heat Index: 52°   Visibility: 10mi
Dew Point: 36°   Wind: 5mph
Humidity: 54%   Direction: 180°S
Pressure: 30.11"   Gusts: NA
Location:  43°N, 71.35°W
Report Text: KMHT 232353Z 18004KT 10SM OVC060 11/02 A3011 RMK AO2 SLP212 T01110022 10144 20106 53012
Loading
Personal Weather Stations






























Interactive Weather Map New forecast layout! Learn more

10-Day Weather Forecast

Advertisements
Track Severe Weather on mobile